Карточка аэропорта UWUU

Внимание!
Информация на этой странице в стадии наполнения.
Если вы не увидели какой-то информации, или заметили неточность - пожалуйста сообщите нам!
Спасибо!
Команда RU-STAFF
Название аэропортаУфа
Название аэропорта (англ.)Ufa
Превышение450 ft. (137.2 m.)
Координаты54°33.6', 55°52.2'
Высота перехода5000 ft
Эшелон переходаFL070
Коды ответчика6730-6731
Зона ОрВДСамара РПИ (UWWW)
Данные METARUWUU 252100Z VRB01MPS CAVOK M17/M23 Q1044 R14R/811050 NOSIG
Проноз погоды (TAF)UWUU 251955Z 2521/2621 20003G09MPS 6000 SCT030 TXM10/2612Z TNM23/2603Z TEMPO 2521/2606 16003MPS 3100 BR HZ FEW005
NOTAMshow/hide NOTAM
AWOS   TABLE

Информация о ВПП

ВПП Длина ВПП (м.) Покрытие Курс ВПП Частота ILS
14R3761Бетон138110.3
32L3761Бетон318108.7

Диспетчерские позиции

Позывной Наименование органа УВД Частота
UWUU_GNDУфа-Руление119.000
UWUU_R_APPУфа-Круг120.900
UWUU_APPУфа-Подход126.000
UWUU_TWRУфа-Вышка131.000



Спутниковое изображение